Tiempo atmosférico en la estación meteorológica de Fuente Palmera, Córdoba (120 m.)



Fecha
DESCASC
Temp. máxima en grados centígrados (hora)
DESCASC
Temp. mínima en grados centígrados (hora)
DESCASC
Temp. media en grados centígrados
DESCASC
Racha de viento máxima en m/sg (hora)
DESCASC
Velocidad máxima media en intervalos de 10 minutos(hora)
DESCASC
Precipitaciones diarias en mm
DESCASC
Precipitaciones de 00:00 a 06:00 en mm
DESCASC
Precipitaciones de 06:00 a 12:00 en mm
DESCASC
Precipitaciones de 12:00 a 18:00 en mm
DESCASC
Precipitaciones de 18:00 a 24:00 en mm
DESCASC
20-09-2020 27.2 (18:30) 18.1 (03:10) 22.7 5.28 (15:50) 2.78 (15:20) 0 0 0 0 0
19-09-2020 24.7 (18:30) 18.1 (05:20) 21.4 9.17 (00:50) 5.28 (00:20) 4.2 2.6 0.4 1.2 0
18-09-2020 27.8 (14:40) 19.7 (10:30) 23.8 18.89 (18:40) 9.44 (14:50) 18 0 16 0.2 1.8
17-09-2020 31.7 (16:30) 20.4 (00:00) 26.1 13.61 (18:10) 7.5 (18:10) 8.6 0 0 0 8.6
16-09-2020 31.5 (15:40) 17.9 (00:00) 24.7 6.94 (17:50) 4.17 (19:30) 0 0 0 0 0
15-09-2020 32 (17:20) 19.3 (00:00) 25.6 7.22 (16:30) 4.17 (01:20) 0 0 0 0 0
14-09-2020 34.1 (17:20) 21.6 (00:00) 27.8 11.11 (21:40) 6.39 (16:10) 0 0 0 0 0
13-09-2020 35.7 (17:10) 21.9 (00:00) 28.8 9.44 (21:40) 5.56 (21:40) 0 0 0 0 0
12-09-2020 36.8 (17:00) 19 (00:00) 27.9 8.33 (14:50) 4.17 (21:30) 0 0 0 0 0
11-09-2020 34.6 (16:20) 18.3 (00:00) 26.4 6.39 (22:20) 4.17 (22:20) 0 0 0 0 0
10-09-2020 35 (17:10) 18.1 (00:00) 26.6 5.83 (00:20) 3.33 (00:20) 0 0 0 0 0
09-09-2020 33.4 (17:30) 18.6 (00:00) 26 9.17 (01:10) 5.56 (01:20) 0 0 0 0 0
08-09-2020 32.6 (17:00) 19.8 (00:00) 26.2 9.72 (21:40) 5.83 (21:40) 0 0 0 0 0
07-09-2020 37.3 (18:10) 19.1 (07:50) 28.2 7.5 (00:50) 3.89 (20:50) 0 0 0 0 0
06-09-2020 36.5 (18:10) 19.3 (00:00) 27.9 6.94 (23:40) 3.89 (22:10) 0 0 0 0 0
05-09-2020 35.9 (18:10) 18.2 (00:00) 27.1 7.22 (10:40) 4.72 (10:50) 0 0 0 0 0
04-09-2020 35.2 (17:50) 19 (00:00) 27.1 10.28 (22:20) 6.94 (22:10) 0 0 0 0 0
03-09-2020 35.3 (18:20) 18 (00:00) 26.6 9.17 (19:20) 5 (20:00) 0 0 0 0 0
02-09-2020 34 (19:00) 15.8 (00:00) 24.9 6.39 (23:10) 3.61 (22:10) 0 0 0 0 0
01-09-2020 32.5 (18:40) 17.3 (00:00) 24.9 6.39 (18:20) 3.33 (21:40) 0 0 0 0 0
31-08-2020 32.9 (17:30) 17.4 (00:00) 25.2 7.22 (22:10) 5 (21:50) 0 0 0 0 0
30-08-2020 32.1 (18:50) 16.7 (00:00) 24.4 10.28 (11:40) 6.67 (11:00) 0 0 0 0 0
29-08-2020 30.8 (17:20) 17.7 (00:00) 24.3 10.83 (13:30) 6.11 (18:00) 0 0 0 0 0
28-08-2020 36.4 (16:40) 21.7 (00:00) 29.1 10.28 (18:30) 6.11 (18:40) 0 0 0 0 0
27-08-2020 39.9 (17:10) 20.8 (00:00) 30.4 9.44 (18:00) 5.83 (18:00) 0 0 0 0 0
26-08-2020 40.5 (18:10) 21.7 (00:00) 31.1 6.11 (19:40) 4.17 (19:50) 0 0 0 0 0
25-08-2020 38.8 (18:50) 20.9 (00:00) 29.8 6.11 (14:50) 3.33 (17:20) 0 0 0 0 0
24-08-2020 37.5 (18:20) 18.6 (00:00) 28.1 6.39 (23:30) 3.61 (23:00) 0 0 0 0 0
23-08-2020 39.5 (18:50) 20.5 (00:00) 30 6.39 (22:10) 3.61 (22:10) 0 0 0 0 0
22-08-2020 38.4 (18:10) 21.2 (00:00) 29.8 5.83 (13:40) 3.06 (21:20) 0 0 0 0 0

Gráficas

Temp. máximas Temp. mínimas Temp. medias Precipitaciones Rachas de viento máximas Velocidades máximas media en intervalos de 10 minutos

Datos horarios

Fecha y hora oficial Temperatura (ºC) Velocidad del viento (km/h) Dirección del viento Racha (km/h) Dirección de racha Precipitación (mm) Presión (hPa) Tendencia (hPa) Humedad (%)
2020-09-20 23:00:00 21.3 2 Sudoeste 3 Sur 0 -- -- 69
2020-09-20 22:00:00 22.2 3 Sudoeste 10 Oeste 0 -- -- 67
2020-09-20 21:00:00 23.6 6 Sudoeste 11 Oeste 0 -- -- 57
2020-09-20 20:00:00 25.5 4 Sudoeste 15 Sudoeste 0 -- -- 49
2020-09-20 19:00:00 26.9 6 Oeste 15 Sur 0 -- -- 44
2020-09-20 18:00:00 27 6 Sudoeste 18 Oeste 0 -- -- 42
2020-09-20 17:00:00 26.7 8 Oeste 17 Oeste 0 -- -- 44
2020-09-20 16:00:00 26 7 Oeste 19 Oeste 0 -- -- 54
2020-09-20 15:00:00 24.8 3 Oeste 16 Oeste 0 -- -- 58
2020-09-20 14:00:00 23.8 5 Oeste 11 Oeste 0 -- -- 61
2020-09-20 13:00:00 22.4 4 Sudoeste 12 Oeste 0 -- -- 69
2020-09-20 12:00:00 21.3 3 Nordeste 10 Este 0 -- -- 74
2020-09-20 11:00:00 19.6 3 Nordeste 5 Norte 0 -- -- 86
2020-09-20 10:00:00 18.7 2 Noroeste 8 Noroeste 0 -- -- 91
2020-09-20 09:00:00 18.2 4 Noroeste 8 Oeste 0 -- -- 93
2020-09-20 08:00:00 18.3 4 Noroeste 8 Noroeste 0 -- -- 93
2020-09-20 07:00:00 18.4 3 Noroeste 5 Noroeste 0 -- -- 92
2020-09-20 06:00:00 18.8 0 Calma 6 Oeste 0 -- -- 90
2020-09-20 05:00:00 18.7 3 Sudoeste 8 Sur 0 -- -- 92
2020-09-20 04:00:00 18.4 2 Sudoeste 5 Sur 0 -- -- 94
2020-09-20 03:00:00 18.2 0 Calma 10 Oeste 0 -- -- 92
2020-09-20 02:00:00 18.8 6 Oeste 15 Sudoeste 0 -- -- 90
2020-09-20 01:00:00 18.9 6 Sudoeste 18 Sudoeste 0 -- -- 88
2020-09-20 00:00:00 19.4 11 Sudoeste 21 Sudoeste 0 -- -- 86
2020-09-19 23:00:00 20.2 9 Sudoeste 20 Sudoeste 0 -- -- 81
2020-09-19 22:00:00 21.2 11 Sudoeste 17 Sudoeste 0 -- -- 75
2020-09-19 21:00:00 21.9 5 Sur 13 Sudoeste 0 -- -- 77
2020-09-19 20:00:00 23.7 6 Sudoeste 18 Sudoeste 0 -- -- 71
2020-09-19 19:00:00 24.3 10 Sudoeste 23 Sudoeste 0 -- -- 68
2020-09-19 18:00:00 24.5 11 Sur 16 Sur 0 -- -- 66
2020-09-19 17:00:00 23.7 9 Sudoeste 22 Sur 0 -- -- 70
2020-09-19 16:00:00 23 7 Sudoeste 15 Sur 0 -- -- 73
2020-09-19 15:00:00 21.2 3 Sudoeste 14 Sudeste 0 -- -- 80
2020-09-19 14:00:00 19.4 5 Sur 10 Sur 0.6 -- -- 90
2020-09-19 13:00:00 19.3 4 Sur 8 Sur 0.6 -- -- 90
2020-09-19 12:00:00 18.8 5 Oeste 15 Sur 0.2 -- -- 89
2020-09-19 11:00:00 18.4 10 Sur 21 Sudoeste 0.2 -- -- 93
2020-09-19 10:00:00 19.1 8 Sudoeste 17 Sudoeste 0 -- -- 92
2020-09-19 09:00:00 18.8 4 Sudoeste 8 Sudoeste 0 -- -- 96
2020-09-19 08:00:00 18.1 5 Sudoeste 12 Sudoeste 0 -- -- 95
2020-09-19 07:00:00 18.4 2 Oeste 8 Oeste 0 -- -- 95
2020-09-19 06:00:00 18.1 2 Sudoeste 14 Sudoeste 0 -- -- 94
2020-09-19 05:00:00 18.2 8 Sudoeste 29 Sudoeste 1.4 -- -- 94
2020-09-19 04:00:00 18.8 12 Sudoeste 22 Sudoeste 0 -- -- 92
2020-09-19 03:00:00 18.8 12 Sudoeste 26 Sudoeste 0 -- -- 91
2020-09-19 02:00:00 19.2 9 Sudoeste 30 Sudoeste 1 -- -- 91
2020-09-19 01:00:00 20.2 13 Oeste 33 Sudoeste 0.2 -- -- 79
2020-09-19 00:00:00 20.8 17 Sudoeste 32 Sudoeste 0 -- -- 75
2020-09-18 23:00:00 20.7 13 Sudoeste 28 Sudoeste 0 -- -- 74
2020-09-18 22:00:00 20.9 13 Sudoeste 26 Sudoeste 0 -- -- 73
2020-09-18 21:00:00 20.9 12 Sudoeste 29 Sudoeste 0 -- -- 76
2020-09-18 20:00:00 20.7 17 Sudoeste 49 Oeste 1.2 -- -- 79
2020-09-18 19:00:00 22.4 17 Sudoeste 68 Sudoeste 0.6 -- -- 69
2020-09-18 18:00:00 23.8 25 Oeste 56 Sudoeste 0 -- -- 63
2020-09-18 17:00:00 26.3 30 Sudoeste 51 Sudoeste 0 -- -- 41
2020-09-18 16:00:00 23.3 15 Oeste 59 Sudoeste 0 -- -- 64
2020-09-18 15:00:00 27 30 Sudoeste 60 Sudoeste 0.2 -- -- 43
2020-09-18 14:00:00 24.2 13 Noroeste 33 Oeste 0 -- -- 79
2020-09-18 13:00:00 21.9 9 Norte 13 Norte 0 -- -- 88
2020-09-18 12:00:00 21.3 4 Norte 9 Nordeste 0 -- -- 91
2020-09-18 11:00:00 20.1 3 Oeste 18 Norte 8.2 -- -- 95
2020-09-18 10:00:00 20.3 3 Sudeste 7 Sudeste 7.8 -- -- 91
2020-09-18 09:00:00 20.8 4 Este 6 Este 0 -- -- 88
2020-09-18 08:00:00 21.1 3 Sudoeste 13 Sur 0 -- -- 82
2020-09-18 07:00:00 20.9 8 Sur 13 Sur 0 -- -- 81
2020-09-18 06:00:00 20.8 5 Sur 12 Sur 0 -- -- 81
2020-09-18 05:00:00 21.6 7 Sur 20 Sudoeste 0 -- -- 75
2020-09-18 04:00:00 21.6 7 Sudoeste 13 Sur 0 -- -- 76
2020-09-18 03:00:00 21.9 4 Oeste 9 Sudoeste 0 -- -- 83
2020-09-18 02:00:00 21.9 2 Norte 4 Este 0 -- -- 92
2020-09-18 01:00:00 22.1 2 Sudeste 7 Sudeste 0 -- -- 90
2020-09-18 00:00:00 22.4 4 Sudeste 10 Oeste 0 -- -- 84
2020-09-17 23:00:00 22.7 3 Sur 13 Oeste 0 -- -- 79
2020-09-17 22:00:00 23 10 Oeste 17 Oeste 0.2 -- -- 76
2020-09-17 21:00:00 23.3 4 Oeste 17 Sudoeste 0 -- -- 76
2020-09-17 20:00:00 22.1 15 Sur 45 Sur 0.2 -- -- 75
2020-09-17 19:00:00 23.6 13 Sur 49 Sudoeste 8.2 -- -- 72
2020-09-17 18:00:00 30.2 15 Sur 31 Sudoeste 0 -- -- 34
2020-09-17 17:00:00 31.5 11 Sur 26 Sudoeste 0 -- -- 34
2020-09-17 16:00:00 31.1 12 Sudoeste 26 Sur 0 -- -- 35
2020-09-17 15:00:00 30.7 10 Sudoeste 23 Sudoeste 0 -- -- 38
2020-09-17 14:00:00 29.4 9 Sudoeste 21 Sudoeste 0 -- -- 42
2020-09-17 13:00:00 28.9 9 Sudoeste 20 Oeste 0 -- -- 43
2020-09-17 12:00:00 27.9 10 Sudoeste 28 Sur 0 -- -- 46
2020-09-17 11:00:00 26.3 14 Sur 22 Sur 0 -- -- 55
2020-09-17 10:00:00 23 2 Nordeste 10 Este 0 -- -- 69
2020-09-17 09:00:00 21.2 7 Este 10 Este 0 -- -- 78
2020-09-17 08:00:00 20.4 4 Este 10 Este 0 -- -- 82
2020-09-17 07:00:00 20.5 4 Este 9 Sudeste 0 -- -- 81
2020-09-17 06:00:00 21.6 3 Sudoeste 12 Sudoeste 0 -- -- 75
2020-09-17 05:00:00 22.4 4 Sudoeste 17 Oeste 0 -- -- 70
2020-09-17 04:00:00 23.9 10 Sudoeste 27 Sur 0 -- -- 57
2020-09-17 03:00:00 23.7 2 Sur 8 Sur 0 -- -- 73
2020-09-17 02:00:00 23.7 3 Sudeste 17 Sudeste 0 -- -- 75
2020-09-17 01:00:00 23.7 8 Sudeste 18 Sudeste 0 -- -- 78
2020-09-17 00:00:00 23.7 5 Este 10 Sudoeste 0 -- -- 78
2020-09-16 23:00:00 24.6 7 Sudoeste 15 Sur 0 -- -- 69
2020-09-16 22:00:00 26.6 5 Sur 19 Sudoeste 0 -- -- 46
2020-09-16 21:00:00 27.2 7 Sudoeste 18 Oeste 0 -- -- 39
2020-09-16 20:00:00 28.1 12 Oeste 22 Oeste 0 -- -- 38
2020-09-16 19:00:00 29.2 9 Oeste 20 Oeste 0 -- -- 36
2020-09-16 18:00:00 30.1 13 Oeste 25 Noroeste 0 -- -- 32
2020-09-16 17:00:00 31 9 Noroeste 24 Oeste 0 -- -- 30
2020-09-16 16:00:00 31.3 8 Oeste 17 Oeste 0 -- -- 30
2020-09-16 15:00:00 30.6 6 Sudeste 21 Sudeste 0 -- -- 29
2020-09-16 14:00:00 30 7 Este 12 Este 0 -- -- 34
2020-09-16 13:00:00 27.9 3 Nordeste 11 Nordeste 0 -- -- 40
2020-09-16 12:00:00 27 6 Nordeste 12 Este 0 -- -- 43
2020-09-16 11:00:00 24.6 8 Nordeste 16 Este 0 -- -- 50
2020-09-16 10:00:00 22 7 Nordeste 11 Nordeste 0 -- -- 58
2020-09-16 09:00:00 18.9 4 Este 8 Este 0 -- -- 69
2020-09-16 08:00:00 18 2 Nordeste 5 Nordeste 0 -- -- 72
2020-09-16 07:00:00 18.9 4 Sudeste 7 Este 0 -- -- 70
2020-09-16 06:00:00 19.2 4 Este 5 Este 0 -- -- 69
2020-09-16 05:00:00 19.8 0 Calma 5 Sudeste 0 -- -- 67
2020-09-16 04:00:00 20.6 0 Calma 3 Oeste 0 -- -- 65
2020-09-16 03:00:00 21.2 0 Calma 7 Este 0 -- -- 60
2020-09-16 02:00:00 22.3 2 Sudeste 11 Sudoeste 0 -- -- 56
2020-09-16 01:00:00 23.5 9 Sudoeste 14 Sudoeste 0 -- -- 51
2020-09-16 00:00:00 24.1 8 Sudoeste 14 Sudoeste 0 -- -- 49
2020-09-15 23:00:00 25.3 8 Oeste 10 Oeste 0 -- -- 46
2020-09-15 22:00:00 26.4 4 Oeste 13 Oeste 0 -- -- 44
2020-09-15 21:00:00 27.7 10 Oeste 15 Oeste 0 -- -- 41
2020-09-15 20:00:00 30.1 9 Oeste 19 Oeste 0 -- -- 35
2020-09-15 19:00:00 31.8 10 Oeste 23 Oeste 0 -- -- 30
2020-09-15 18:00:00 32 6 Noroeste 23 Oeste 0 -- -- 30
2020-09-15 17:00:00 31.8 4 Noroeste 26 Oeste 0 -- -- 32
2020-09-15 16:00:00 31 9 Oeste 23 Oeste 0 -- -- 34
2020-09-15 15:00:00 30.3 10 Sudoeste 21 Sur 0 -- -- 36
2020-09-15 14:00:00 29.7 8 Sudoeste 17 Sur 0 -- -- 38
2020-09-15 13:00:00 27.7 5 Sur 14 Sudoeste 0 -- -- 46
2020-09-15 12:00:00 26.8 5 Sudoeste 13 Sur 0 -- -- 50
2020-09-15 11:00:00 25.2 4 Nordeste 6 Este 0 -- -- 56
2020-09-15 10:00:00 23.4 2 Este 6 Este 0 -- -- 61
2020-09-15 09:00:00 20.5 2 Sudeste 6 Sudeste 0 -- -- 77
2020-09-15 08:00:00 19.5 2 Nordeste 5 Sur 0 -- -- 75
2020-09-15 07:00:00 20.1 3 Sur 9 Sudoeste 0 -- -- 72
2020-09-15 06:00:00 20.8 5 Sudoeste 12 Sur 0 -- -- 69
2020-09-15 05:00:00 21.6 6 Sudoeste 14 Oeste 0 -- -- 67
2020-09-15 04:00:00 22.6 7 Sudoeste 18 Sudoeste 0 -- -- 64
2020-09-15 03:00:00 22.7 8 Oeste 13 Sudoeste 0 -- -- 67
2020-09-15 02:00:00 23.4 9 Oeste 25 Oeste 0 -- -- 67
2020-09-15 01:00:00 24.3 13 Oeste 20 Oeste 0 -- -- 64
2020-09-15 00:00:00 25.6 9 Sudoeste 27 Sudoeste 0 -- -- 57
2020-09-14 23:00:00 26.9 11 Sudoeste 29 Oeste 0 -- -- 53
2020-09-14 22:00:00 27.8 16 Sudoeste 40 Oeste 0 -- -- 51
2020-09-14 21:00:00 29.1 7 Sudoeste 12 Sudoeste 0 -- -- 38
2020-09-14 20:00:00 30.9 7 Oeste 26 Oeste 0 -- -- 34
2020-09-14 19:00:00 32.7 13 Sur 32 Sur 0 -- -- 24
2020-09-14 18:00:00 33.8 13 Sur 30 Sur 0 -- -- 22
2020-09-14 17:00:00 33.8 18 Sur 33 Sur 0 -- -- 23
2020-09-14 16:00:00 33.2 21 Sur 34 Sur 0 -- -- 23
2020-09-14 15:00:00 32.1 16 Sur 28 Sur 0 -- -- 26
2020-09-14 14:00:00 32 13 Sur 29 Sudeste 0 -- -- 25
2020-09-14 13:00:00 30.5 14 Sudeste 22 Sudeste 0 -- -- 29
2020-09-14 12:00:00 27.9 7 Nordeste 14 Este 0 -- -- 38
2020-09-14 11:00:00 25.7 7 Nordeste 12 Nordeste 0 -- -- 43
2020-09-14 10:00:00 23.2 2 Nordeste 8 Este 0 -- -- 51
2020-09-14 09:00:00 21.7 3 Este 8 Este 0 -- -- 54
2020-09-14 08:00:00 21.6 5 Este 8 Nordeste 0 -- -- 53
2020-09-14 07:00:00 22 2 Nordeste 7 Nordeste 0 -- -- 51
2020-09-14 06:00:00 22.3 2 Norte 6 Este 0 -- -- 49
2020-09-14 05:00:00 22.9 6 Este 11 Este 0 -- -- 47
2020-09-14 04:00:00 22.9 6 Este 11 Nordeste 0 -- -- 47
2020-09-14 03:00:00 23.7 5 Este 15 Sur 0 -- -- 44
2020-09-14 02:00:00 24.3 4 Sudeste 8 Norte 0 -- -- 42
2020-09-14 01:00:00 24.9 4 Nordeste 13 Sur 0 -- -- 40
2020-09-14 00:00:00 26.2 2 Oeste 16 Oeste 0 -- -- 35
2020-09-13 23:00:00 27.4 12 Sur 31 Sur 0 -- -- 32
2020-09-13 22:00:00 28 16 Sur 34 Sur 0 -- -- 30
2020-09-13 21:00:00 29.3 19 Sur 32 Sur 0 -- -- 27
2020-09-13 20:00:00 31.5 16 Sur 29 Sudoeste 0 -- -- 24
2020-09-13 19:00:00 33.6 16 Sur 33 Sudoeste 0 -- -- 20
2020-09-13 18:00:00 34.7 18 Sur 32 Sudoeste 0 -- -- 19
2020-09-13 17:00:00 35.6 16 Sudeste 30 Sudeste 0 -- -- 15
2020-09-13 16:00:00 35.3 13 Sur 26 Sur 0 -- -- 16
2020-09-13 15:00:00 34.4 17 Sur 24 Sur 0 -- -- 20
2020-09-13 14:00:00 32.8 9 Sudeste 23 Sudeste 0 -- -- 19
2020-09-13 13:00:00 32.8 10 Este 21 Sudeste 0 -- -- 20
2020-09-13 12:00:00 30.1 9 Este 19 Este 0 -- -- 25
2020-09-13 11:00:00 26.7 13 Este 21 Este 0 -- -- 32
2020-09-13 10:00:00 24.4 6 Nordeste 9 Nordeste 0 -- -- 37
2020-09-13 09:00:00 22.4 5 Este 9 Sudeste 0 -- -- 41
2020-09-13 08:00:00 22.1 2 Este 11 Este 0 -- -- 40
2020-09-13 07:00:00 22.1 6 Este 12 Este 0 -- -- 41
2020-09-13 06:00:00 22.7 3 Este 5 Este 0 -- -- 39
2020-09-13 05:00:00 23.4 3 Este 11 Sudeste 0 -- -- 36
2020-09-13 04:00:00 23.8 7 Sudeste 10 Sudeste 0 -- -- 36
2020-09-13 03:00:00 24 3 Nordeste 6 Norte 0 -- -- 33
2020-09-13 02:00:00 23.9 0 Calma 4 Este 0 -- -- 34
2020-09-13 01:00:00 25.1 0 Calma 5 Oeste 0 -- -- 29
2020-09-13 00:00:00 26.4 3 Oeste 9 Noroeste 0 -- -- 26
2020-09-12 23:00:00 27.8 6 Noroeste 16 Sur 0 -- -- 23
2020-09-12 22:00:00 29.1 12 Sudoeste 28 Sudoeste 0 -- -- 21
2020-09-12 21:00:00 30.6 12 Sur 22 Sudoeste 0 -- -- 18
2020-09-12 20:00:00 32.6 13 Sudoeste 24 Sudoeste 0 -- -- 15
2020-09-12 19:00:00 34.7 10 Sudoeste 21 Sur 0 -- -- 15
2020-09-12 18:00:00 36.2 9 Sur 21 Sur 0 -- -- 14
2020-09-12 17:00:00 36.8 12 Sudeste 24 Sudeste 0 -- -- 12
2020-09-12 16:00:00 36 5 Sudeste 23 Sudeste 0 -- -- 14
2020-09-12 15:00:00 35.6 14 Sudeste 30 Sudeste 0 -- -- 14
2020-09-12 14:00:00 34 6 Sudeste 19 Este 0 -- -- 16
2020-09-12 13:00:00 32.5 10 Este 20 Sudeste 0 -- -- 19
2020-09-12 12:00:00 29.4 11 Este 20 Este 0 -- -- 24
2020-09-12 11:00:00 26.6 10 Este 17 Nordeste 0 -- -- 28
2020-09-12 10:00:00 21.7 8 Este 14 Este 0 -- -- 39
2020-09-12 09:00:00 20.8 6 Este 12 Nordeste 0 -- -- 46
2020-09-12 08:00:00 19 7 Este 13 Nordeste 0 -- -- 45
2020-09-12 07:00:00 19.3 5 Este 9 Este 0 -- -- 45
2020-09-12 06:00:00 20 6 Este 10 Este 0 -- -- 43
2020-09-12 05:00:00 20.9 5 Este 9 Este 0 -- -- 39
2020-09-12 04:00:00 21.5 5 Este 9 Este 0 -- -- 36
2020-09-12 03:00:00 21.9 7 Sudeste 10 Sudeste 0 -- -- 35
2020-09-12 02:00:00 22.9 0 Calma 6 Sur 0 -- -- 34
2020-09-12 01:00:00 24.8 4 Sudeste 9 Sudeste 0 -- -- 27
2020-09-12 00:00:00 26 6 Este 18 Sur 0 -- -- 23
2020-09-11 23:00:00 26.8 6 Norte 23 Sur 0 -- -- 23
2020-09-11 22:00:00 28.1 14 Sur 22 Sur 0 -- -- 20
2020-09-11 21:00:00 29.7 12 Sur 18 Sur 0 -- -- 20
2020-09-11 20:00:00 33.7 2 Sudoeste 5 Nordeste 0 -- -- 19
2020-09-11 19:00:00 34.2 3 Nordeste 11 Norte 0 -- -- 17
2020-09-11 18:00:00 34.1 3 Norte 10 Sur 0 -- -- 18
2020-09-11 17:00:00 33.9 4 Sur 15 Sudoeste 0 -- -- 18
2020-09-11 16:00:00 33.6 4 Sudeste 15 Sur 0 -- -- 19
2020-09-11 15:00:00 33.3 8 Sur 17 Sudeste 0 -- -- 19
2020-09-11 14:00:00 32.2 8 Sudeste 19 Nordeste 0 -- -- 21
2020-09-11 13:00:00 30.1 9 Nordeste 17 Este 0 -- -- 25
2020-09-11 12:00:00 28.4 6 Este 14 Este 0 -- -- 29
2020-09-11 11:00:00 25.5 8 Este 14 Este 0 -- -- 36
2020-09-11 10:00:00 23 9 Este 13 Este 0 -- -- 43
2020-09-11 09:00:00 19.4 4 Este 9 Nordeste 0 -- -- 53
2020-09-11 08:00:00 18.3 4 Sudeste 7 Nordeste 0 -- -- 53
2020-09-11 07:00:00 18.9 3 Este 8 Este 0 -- -- 52
2020-09-11 06:00:00 19 3 Este 8 Sur 0 -- -- 54
2020-09-11 05:00:00 20.8 5 Sur 9 Sur 0 -- -- 49
2020-09-11 04:00:00 21 5 Sudeste 9 Este 0 -- -- 47
2020-09-11 03:00:00 22.3 3 Sudeste 6 Sudeste 0 -- -- 43
2020-09-11 02:00:00 24 6 Sudoeste 16 Sudoeste 0 -- -- 37
2020-09-11 01:00:00 24.5 11 Sudoeste 20 Sur 0 -- -- 35
2020-09-11 00:00:00 24.7 3 Nordeste 11 Sudoeste 0 -- -- 38
2020-09-10 23:00:00 27.4 5 Oeste 12 Sudoeste 0 -- -- 31
2020-09-10 22:00:00 28.3 2 Noroeste 6 Sudoeste 0 -- -- 28
2020-09-10 21:00:00 30.5 5 Oeste 10 Oeste 0 -- -- 24
2020-09-10 20:00:00 34.2 3 Sudoeste 11 Sur 0 -- -- 18
2020-09-10 19:00:00 34.4 4 Sur 13 Sur 0 -- -- 17
2020-09-10 18:00:00 34.3 5 Sur 14 Sudoeste 0 -- -- 17
2020-09-10 17:00:00 34.4 5 Sur 17 Sur 0 -- -- 16
2020-09-10 16:00:00 34.1 5 Oeste 13 Este 0 -- -- 16
2020-09-10 15:00:00 32.1 7 Sudoeste 12 Oeste 0 -- -- 25
2020-09-10 14:00:00 30.2 4 Oeste 12 Oeste 0 -- -- 32
2020-09-10 13:00:00 28.3 5 Sudoeste 14 Nordeste 0 -- -- 38
2020-09-10 12:00:00 26.3 6 Oeste 12 Oeste 0 -- -- 44
2020-09-10 11:00:00 25 2 Este 7 Nordeste 0 -- -- 48
2020-09-10 10:00:00 22.3 4 Nordeste 8 Nordeste 0 -- -- 47
2020-09-10 09:00:00 19.4 3 Este 6 Nordeste 0 -- -- 61
2020-09-10 08:00:00 18.2 4 Este 6 Nordeste 0 -- -- 65
2020-09-10 07:00:00 19 0 Calma 5 Oeste 0 -- -- 65
2020-09-10 06:00:00 19.9 0 Calma 10 Sudoeste 0 -- -- 67
2020-09-10 05:00:00 20.6 7 Sur 14 Sur 0 -- -- 67
2020-09-10 04:00:00 21 5 Sur 12 Sur 0 -- -- 63
2020-09-10 03:00:00 22 5 Sur 9 Sur 0 -- -- 60
2020-09-10 02:00:00 23.1 6 Oeste 17 Oeste 0 -- -- 52
2020-09-10 01:00:00 24.2 10 Sudoeste 21 Sur 0 -- -- 37
2020-09-10 00:00:00 25.2 3 Sudeste 5 Sur 0 -- -- 35
2020-09-09 23:00:00 25.6 4 Este 8 Este 0 -- -- 35
2020-09-09 22:00:00 27.6 3 Sudoeste 8 Oeste 0 -- -- 31
2020-09-09 21:00:00 29.6 6 Oeste 9 Oeste 0 -- -- 28
2020-09-09 20:00:00 32.3 3 Sudoeste 10 Sur 0 -- -- 22
2020-09-09 19:00:00 33.2 6 Sur 13 Sudoeste 0 -- -- 18
2020-09-09 18:00:00 33.4 5 Oeste 14 Oeste 0 -- -- 18
2020-09-09 17:00:00 32.6 8 Sur 16 Sudeste 0 -- -- 22
2020-09-09 16:00:00 31.8 8 Oeste 15 Sudoeste 0 -- -- 26
2020-09-09 15:00:00 31 5 Norte 15 Este 0 -- -- 29
2020-09-09 14:00:00 29.9 5 Oeste 15 Sudeste 0 -- -- 32
2020-09-09 13:00:00 27.9 7 Este 22 Sudeste 0 -- -- 38
2020-09-09 12:00:00 26.8 9 Este 19 Este 0 -- -- 42
2020-09-09 11:00:00 25.3 11 Este 18 Este 0 -- -- 47
2020-09-09 10:00:00 22.8 5 Nordeste 8 Nordeste 0 -- -- 58
2020-09-09 09:00:00 20.1 4 Este 9 Nordeste 0 -- -- 67
2020-09-09 08:00:00 18.6 5 Este 8 Este 0 -- -- 70
2020-09-09 07:00:00 19.1 3 Este 10 Nordeste 0 -- -- 65
2020-09-09 06:00:00 19.5 5 Nordeste 12 Nordeste 0 -- -- 62
2020-09-09 05:00:00 20 3 Nordeste 5 Nordeste 0 -- -- 60
2020-09-09 04:00:00 20.8 2 Este 8 Este 0 -- -- 57
2020-09-09 03:00:00 21.7 3 Nordeste 13 Este 0 -- -- 52
2020-09-09 02:00:00 22.7 6 Sudeste 33 Sur 0 -- -- 50
2020-09-09 01:00:00 23.1 18 Sur 28 Sudeste 0 -- -- 50
2020-09-09 00:00:00 23.3 8 Sur 17 Sur 0 -- -- 41
2020-09-08 23:00:00 24.2 5 Sur 22 Sur 0 -- -- 40
2020-09-08 22:00:00 25.3 19 Sur 35 Sur 0 -- -- 37
2020-09-08 21:00:00 27.2 15 Sur 30 Sur 0 -- -- 36
2020-09-08 20:00:00 30.1 14 Sur 28 Sur 0 -- -- 32
2020-09-08 19:00:00 31.7 13 Sur 27 Sur 0 -- -- 28
2020-09-08 18:00:00 32.4 18 Sur 29 Sur 0 -- -- 27
2020-09-08 17:00:00 32.6 9 Sur 29 Sudeste 0 -- -- 25
2020-09-08 16:00:00 32.5 13 Sur 28 Sudeste 0 -- -- 26
2020-09-08 15:00:00 31.8 11 Sur 32 Sudeste 0 -- -- 28
2020-09-08 14:00:00 31.1 14 Sudeste 29 Sudeste 0 -- -- 30
2020-09-08 13:00:00 30 13 Sur 34 Sudeste 0 -- -- 33
2020-09-08 12:00:00 29 16 Sudeste 31 Sudeste 0 -- -- 37
2020-09-08 11:00:00 27.3 8 Sudeste 14 Sur 0 -- -- 46
2020-09-08 10:00:00 24.7 7 Nordeste 11 Nordeste 0 -- -- 50
2020-09-08 09:00:00 21 6 Nordeste 14 Nordeste 0 -- -- 47
2020-09-08 08:00:00 19.9 6 Este 12 Nordeste 0 -- -- 42
2020-09-08 07:00:00 20.3 4 Este 9 Este 0 -- -- 42
2020-09-08 06:00:00 21.2 4 Nordeste 9 Este 0 -- -- 44
2020-09-08 05:00:00 21.3 7 Este 20 Sudeste 0 -- -- 52
2020-09-08 04:00:00 22.7 8 Sudeste 21 Sudeste 0 -- -- 49
2020-09-08 03:00:00 24.7 10 Este 17 Este 0 -- -- 22
2020-09-08 02:00:00 26.1 9 Sudeste 17 Este 0 -- -- 23
2020-09-08 01:00:00 25.9 10 Sudeste 16 Este 0 -- -- 33
2020-09-08 00:00:00 26.8 3 Sur 19 Sudoeste 0 -- -- 38
2020-09-07 23:00:00 28.4 7 Sudoeste 14 Oeste 0 -- -- 35
2020-09-07 22:00:00 30.3 5 Oeste 13 Oeste 0 -- -- 30
2020-09-07 21:00:00 32.2 10 Oeste 18 Oeste 0 -- -- 25
2020-09-07 20:00:00 35.4 8 Oeste 18 Oeste 0 -- -- 20
2020-09-07 19:00:00 36.7 9 Oeste 22 Oeste 0 -- -- 17
2020-09-07 18:00:00 37.1 7 Sudoeste 21 Oeste 0 -- -- 16
2020-09-07 17:00:00 36.1 7 Sudoeste 17 Oeste 0 -- -- 19
2020-09-07 16:00:00 34.9 9 Oeste 17 Sudoeste 0 -- -- 21
2020-09-07 15:00:00 33.7 8 Sur 15 Sudoeste 0 -- -- 23
2020-09-07 14:00:00 31.7 6 Sudoeste 17 Oeste 0 -- -- 30
2020-09-07 13:00:00 29.6 9 Oeste 17 Oeste 0 -- -- 34
2020-09-07 12:00:00 27.5 8 Oeste 18 Oeste 0 -- -- 42
2020-09-07 11:00:00 25.6 3 Noroeste 8 Norte 0 -- -- 48
2020-09-07 10:00:00 23 2 Norte 7 Norte 0 -- -- 55
2020-09-07 09:00:00 20.8 0 Calma 5 Este 0 -- -- 63
2020-09-07 08:00:00 19.1 4 Este 5 Este 0 -- -- 69
2020-09-07 07:00:00 19.6 2 Este 5 Sur 0 -- -- 66
2020-09-07 06:00:00 20.5 2 Nordeste 8 Sur 0 -- -- 62
2020-09-07 05:00:00 21.9 6 Sur 10 Sur 0 -- -- 56
2020-09-07 04:00:00 23 5 Sur 12 Sudoeste 0 -- -- 52
2020-09-07 03:00:00 24.2 6 Sudoeste 14 Sudoeste 0 -- -- 46
2020-09-07 02:00:00 25.9 10 Sudoeste 23 Sudoeste 0 -- -- 42
2020-09-07 01:00:00 26.5 12 Sudoeste 27 Sudoeste 0 -- -- 41
2020-09-07 00:00:00 27.6 10 Sudoeste 25 Sudoeste 0 -- -- 38
2020-09-06 23:00:00 28.9 11 Sudoeste 22 Sudoeste 0 -- -- 35
2020-09-06 22:00:00 29.6 13 Sur 21 Sur 0 -- -- 30
2020-09-06 21:00:00 31.3 10 Sur 14 Sur 0 -- -- 27
2020-09-06 20:00:00 34.6 8 Sur 17 Sur 0 -- -- 23
2020-09-06 19:00:00 35.9 6 Sur 14 Sur 0 -- -- 18
2020-09-06 18:00:00 36.3 4 Sur 20 Sur 0 -- -- 18
2020-09-06 17:00:00 35.9 8 Sudoeste 17 Sudoeste 0 -- -- 21
2020-09-06 16:00:00 34.9 8 Sudeste 21 Sudeste 0 -- -- 22
2020-09-06 15:00:00 34.1 8 Sur 23 Sudeste 0 -- -- 24
2020-09-06 14:00:00 32.5 6 Sudeste 21 Sudeste 0 -- -- 27
2020-09-06 13:00:00 31.3 8 Sudeste 22 Este 0 -- -- 30
2020-09-06 12:00:00 29.3 12 Este 22 Este 0 -- -- 37
2020-09-06 11:00:00 26.6 9 Nordeste 16 Este 0 -- -- 47
2020-09-06 10:00:00 24.1 8 Este 12 Este 0 -- -- 54
2020-09-06 09:00:00 20.7 4 Este 10 Este 0 -- -- 62
2020-09-06 08:00:00 19.3 4 Nordeste 8 Nordeste 0 -- -- 66
2020-09-06 07:00:00 19.3 3 Sudeste 10 Este 0 -- -- 64
2020-09-06 06:00:00 20.1 5 Este 11 Nordeste 0 -- -- 61
2020-09-06 05:00:00 20.9 5 Nordeste 10 Nordeste 0 -- -- 62
2020-09-06 04:00:00 22.4 2 Norte 19 Sur 0 -- -- 57
2020-09-06 03:00:00 23.1 13 Sur 23 Sur 0 -- -- 55
2020-09-06 02:00:00 23.6 10 Sur 18 Sur 0 -- -- 51
2020-09-06 01:00:00 24.6 4 Sudeste 11 Sur 0 -- -- 41
2020-09-06 00:00:00 25.9 6 Este 24 Sur 0 -- -- 39
2020-09-05 23:00:00 27.3 15 Sur 24 Sur 0 -- -- 32
2020-09-05 22:00:00 29.1 14 Sur 20 Sur 0 -- -- 26
2020-09-05 21:00:00 31.2 10 Sur 16 Sur 0 -- -- 25
2020-09-05 20:00:00 34.5 8 Sur 14 Sur 0 -- -- 19
2020-09-05 19:00:00 35.6 6 Sur 15 Sur 0 -- -- 18
2020-09-05 18:00:00 35.5 5 Sur 19 Sur 0 -- -- 19
2020-09-05 17:00:00 35.4 6 Sur 13 Sur 0 -- -- 20
2020-09-05 16:00:00 34.5 6 Oeste 17 Este 0 -- -- 22
2020-09-05 15:00:00 32.9 5 Oeste 15 Sudeste 0 -- -- 26
2020-09-05 14:00:00 32.1 8 Sur 15 Sur 0 -- -- 27
2020-09-05 13:00:00 30.3 9 Sudeste 21 Sudeste 0 -- -- 31
2020-09-05 12:00:00 28.5 13 Este 22 Este 0 -- -- 35
2020-09-05 11:00:00 26.8 15 Sudeste 26 Sudeste 0 -- -- 45
2020-09-05 10:00:00 24.1 10 Este 18 Este 0 -- -- 55
2020-09-05 09:00:00 20.4 6 Este 15 Este 0 -- -- 63
2020-09-05 08:00:00 18.2 8 Este 10 Este 0 -- -- 66
2020-09-05 07:00:00 18.8 3 Este 10 Este 0 -- -- 64
2020-09-05 06:00:00 19.6 7 Este 13 Nordeste 0 -- -- 60
2020-09-05 05:00:00 19.9 8 Este 13 Este 0 -- -- 60
2020-09-05 04:00:00 20.7 3 Sudeste 13 Sur 0 -- -- 57
2020-09-05 03:00:00 22 6 Sur 13 Sur 0 -- -- 55
2020-09-05 02:00:00 22.9 3 Sudeste 12 Sur 0 -- -- 52
2020-09-05 01:00:00 23.7 5 Sudoeste 12 Sur 0 -- -- 48
2020-09-05 00:00:00 24.8 3 Este 20 Sur 0 -- -- 41
2020-09-04 23:00:00 25.7 4 Norte 37 Sur 0 -- -- 38
2020-09-04 22:00:00 27.3 21 Sur 36 Sur 0 -- -- 34
2020-09-04 21:00:00 29.3 13 Sur 23 Sur 0 -- -- 26
2020-09-04 20:00:00 33 10 Sur 17 Sur 0 -- -- 17
2020-09-04 19:00:00 34.8 11 Sudeste 22 Sudoeste 0 -- -- 13
2020-09-04 18:00:00 35 15 Sur 21 Sur 0 -- -- 12
2020-09-04 17:00:00 34.9 10 Sur 21 Sur 0 -- -- 14
2020-09-04 16:00:00 34.2 6 Sudeste 19 Sudeste 0 -- -- 15
2020-09-04 15:00:00 33.2 5 Este 17 Sur 0 -- -- 18
2020-09-04 14:00:00 31.8 9 Sur 17 Sudeste 0 -- -- 23
2020-09-04 13:00:00 30 7 Este 14 Este 0 -- -- 28
2020-09-04 12:00:00 28.2 7 Nordeste 19 Este 0 -- -- 33
2020-09-04 11:00:00 26.3 5 Este 14 Sudeste 0 -- -- 39
2020-09-04 10:00:00 23.6 6 Este 11 Este 0 -- -- 46
2020-09-04 09:00:00 20.5 6 Este 12 Este 0 -- -- 56
2020-09-04 08:00:00 19 4 Sudeste 8 Nordeste 0 -- -- 59
2020-09-04 07:00:00 19.3 4 Este 8 Este 0 -- -- 58
2020-09-04 06:00:00 19.6 4 Este 8 Este 0 -- -- 55
2020-09-04 05:00:00 20.4 3 Este 6 Este 0 -- -- 53
2020-09-04 04:00:00 21.2 4 Este 10 Este 0 -- -- 49
2020-09-04 03:00:00 21.5 4 Este 6 Este 0 -- -- 48
2020-09-04 02:00:00 22.1 3 Este 4 Este 0 -- -- 48
2020-09-04 01:00:00 23.2 0 Calma 4 Noroeste 0 -- -- 44
2020-09-04 00:00:00 24.9 2 Noroeste 9 Noroeste 0 -- -- 40
2020-09-03 23:00:00 25.7 5 Noroeste 21 Sur 0 -- -- 37
2020-09-03 22:00:00 27.1 14 Sur 26 Sur 0 -- -- 31
2020-09-03 21:00:00 29 13 Sur 31 Sudoeste 0 -- -- 27
2020-09-03 20:00:00 31.8 18 Sudoeste 33 Sur 0 -- -- 21
2020-09-03 19:00:00 33.8 14 Sur 29 Sudoeste 0 -- -- 21
2020-09-03 18:00:00 35.2 9 Sudoeste 23 Sudeste 0 -- -- 15
2020-09-03 17:00:00 34.6 9 Este 20 Este 0 -- -- 15
2020-09-03 16:00:00 34.2 9 Sur 22 Este 0 -- -- 17
2020-09-03 15:00:00 33 5 Este 19 Nordeste 0 -- -- 21
2020-09-03 14:00:00 31.8 8 Este 24 Sudeste 0 -- -- 23
2020-09-03 13:00:00 30 11 Nordeste 20 Este 0 -- -- 29
2020-09-03 12:00:00 28.1 7 Este 19 Este 0 -- -- 34
2020-09-03 11:00:00 25.9 10 Este 17 Este 0 -- -- 38
2020-09-03 10:00:00 23.1 8 Nordeste 13 Este 0 -- -- 42
2020-09-03 09:00:00 19.9 5 Este 10 Sudeste 0 -- -- 52
2020-09-03 08:00:00 18 8 Este 11 Este 0 -- -- 58
2020-09-03 07:00:00 18.5 5 Este 9 Este 0 -- -- 54
2020-09-03 06:00:00 19 4 Este 6 Este 0 -- -- 51
2020-09-03 05:00:00 19.4 4 Este 8 Este 0 -- -- 49
2020-09-03 04:00:00 20.5 3 Norte 6 Noroeste 0 -- -- 43
2020-09-03 03:00:00 21.6 0 Calma 9 Sur 0 -- -- 40
2020-09-03 02:00:00 22.3 0 Calma 14 Sur 0 -- -- 38
2020-09-03 01:00:00 23.3 6 Sur 10 Sur 0 -- -- 36
2020-09-03 00:00:00 24.5 4 Sudeste 23 Sudoeste 0 -- -- 33
2020-09-02 23:00:00 25.5 9 Sur 21 Sur 0 -- -- 31
2020-09-02 22:00:00 27.2 13 Sur 22 Sur 0 -- -- 28
2020-09-02 21:00:00 30.1 5 Sudoeste 13 Oeste 0 -- -- 22
2020-09-02 20:00:00 33.4 6 Oeste 12 Oeste 0 -- -- 15
2020-09-02 19:00:00 34 4 Sudoeste 14 Oeste 0 -- -- 11
2020-09-02 18:00:00 33.9 6 Noroeste 16 Oeste 0 -- -- 13
2020-09-02 17:00:00 33.5 6 Sudoeste 15 Sur 0 -- -- 14
2020-09-02 16:00:00 32.5 5 Sur 17 Sur 0 -- -- 16
2020-09-02 15:00:00 31.1 8 Oeste 15 Sudoeste 0 -- -- 19
2020-09-02 14:00:00 29.8 8 Sudoeste 16 Oeste 0 -- -- 20
2020-09-02 13:00:00 28.1 8 Sudeste 17 Sudeste 0 -- -- 24
2020-09-02 12:00:00 25.8 7 Este 14 Nordeste 0 -- -- 34
2020-09-02 11:00:00 23.6 6 Este 15 Este 0 -- -- 43
2020-09-02 10:00:00 -- 5 Este 10 Este 0 -- -- --
2020-09-02 09:00:00 17.4 4 Nordeste 8 Nordeste 0 -- -- 61
2020-09-02 08:00:00 15.9 3 Este 6 Este 0 -- -- 68
2020-09-02 07:00:00 16.3 5 Este 7 Este 0 -- -- 66
2020-09-02 06:00:00 17 3 Este 5 Este 0 -- -- 67
2020-09-02 05:00:00 17.3 2 Este 9 Sudoeste 0 -- -- 65
2020-09-02 04:00:00 18.7 6 Sudoeste 8 Sudoeste 0 -- -- 60
2020-09-02 03:00:00 19.4 4 Sudoeste 7 Sudoeste 0 -- -- 58
2020-09-02 02:00:00 20.6 4 Sudoeste 17 Oeste 0 -- -- 53
2020-09-02 01:00:00 21.8 6 Oeste 14 Sudoeste 0 -- -- 47
2020-09-02 00:00:00 23.6 8 Sudoeste 16 Sudoeste 0 -- -- 35
2020-09-01 23:00:00 25.1 8 Sudoeste 14 Sudoeste 0 -- -- 28
2020-09-01 22:00:00 26.9 7 Sudoeste 22 Oeste 0 -- -- 23
2020-09-01 21:00:00 28.8 8 Sudoeste 18 Sudoeste 0 -- -- 22
2020-09-01 20:00:00 31.5 8 Sudoeste 18 Sudoeste 0 -- -- 18
2020-09-01 19:00:00 32.2 11 Sudoeste 23 Oeste 0 -- -- 16
2020-09-01 18:00:00 32.2 11 Sudoeste 22 Sudoeste 0 -- -- 17
2020-09-01 17:00:00 30.9 9 Sudoeste 20 Sur 0 -- -- 19
2020-09-01 16:00:00 30.6 6 Sudoeste 20 Oeste 0 -- -- 20
2020-09-01 15:00:00 29.9 8 Sudoeste 17 Sudoeste 0 -- -- 23
2020-09-01 14:00:00 27.4 8 Oeste 16 Oeste 0 -- -- 29
2020-09-01 13:00:00 25.9 4 Sudeste 9 Norte 0 -- -- 34
2020-09-01 12:00:00 23.1 5 Norte 11 Nordeste 0 -- -- 45
2020-09-01 11:00:00 22.1 5 Nordeste 10 Este 0 -- -- 46
2020-09-01 10:00:00 20.2 6 Este 9 Este 0 -- -- 51
2020-09-01 09:00:00 18 3 Este 6 Este 0 -- -- 58
2020-09-01 08:00:00 17.3 0 Calma 7 Este 0 -- -- 59
2020-09-01 07:00:00 18 5 Sudeste 8 Sudeste 0 -- -- 57
2020-09-01 06:00:00 18.4 4 Este 8 Este 0 -- -- 56
2020-09-01 05:00:00 18.8 4 Este 9 Este 0 -- -- 53
2020-09-01 04:00:00 19.3 3 Nordeste 5 Norte 0 -- -- 51
2020-09-01 03:00:00 20.1 4 Este 12 Sudeste 0 -- -- 50
2020-09-01 02:00:00 21.8 8 Sudeste 15 Sudeste 0 -- -- 44
2020-09-01 01:00:00 22.3 2 Sur 5 Nordeste 0 -- -- 38
2020-09-01 00:00:00 23.8 3 Norte 16 Sur 0 -- -- 34
2020-08-31 23:00:00 24.9 14 Sur 26 Sur 0 -- -- 31
2020-08-31 22:00:00 26.4 16 Sur 26 Sur 0 -- -- 26
2020-08-31 21:00:00 28.4 15 Sur 23 Sur 0 -- -- 22
2020-08-31 20:00:00 32.4 5 Noroeste 12 Noroeste 0 -- -- 19
2020-08-31 19:00:00 32.6 5 Norte 15 Norte 0 -- -- 19
2020-08-31 18:00:00 32.8 12 Noroeste 21 Norte 0 -- -- 18
2020-08-31 17:00:00 32.8 9 Nordeste 19 Sudeste 0 -- -- 20
2020-08-31 16:00:00 32.1 7 Norte 18 Sudeste 0 -- -- 17
2020-08-31 15:00:00 31.2 7 Nordeste 22 Este 0 -- -- 17
2020-08-31 14:00:00 30.4 9 Sudeste 21 Este 0 -- -- 20
2020-08-31 13:00:00 28.4 11 Nordeste 21 Sudeste 0 -- -- 23
2020-08-31 12:00:00 26.9 10 Este 19 Nordeste 0 -- -- 24
2020-08-31 11:00:00 25 9 Este 22 Este 0 -- -- 22
2020-08-31 10:00:00 22.1 10 Este 15 Este 0 -- -- 22
2020-08-31 09:00:00 18.9 7 Este 14 Este 0 -- -- 29
2020-08-31 08:00:00 17.6 7 Nordeste 16 Este 0 -- -- 30
2020-08-31 07:00:00 17.7 7 Este 10 Este 0 -- -- 30
2020-08-31 06:00:00 17.7 5 Nordeste 14 Este 0 -- -- 31
2020-08-31 05:00:00 20.1 13 Sudeste 19 Sudeste 0 -- -- 23
2020-08-31 04:00:00 18.1 6 Este 10 Nordeste 0 -- -- 30
2020-08-31 03:00:00 19.6 3 Este 11 Este 0 -- -- 25
2020-08-31 02:00:00 20.3 3 Nordeste 12 Este 0 -- -- 24
2020-08-31 01:00:00 21.5 6 Este 14 Este 0 -- -- 22
2020-08-31 00:00:00 22.6 0 Calma 10 Nordeste 0 -- -- 20
2020-08-30 23:00:00 24.1 7 Nordeste 16 Este 0 -- -- 18
2020-08-30 22:00:00 25.6 9 Nordeste 14 Nordeste 0 -- -- 16
2020-08-30 21:00:00 28 10 Nordeste 14 Norte 0 -- -- 14
2020-08-30 20:00:00 31.1 3 Norte 11 Sur 0 -- -- 11
2020-08-30 19:00:00 31.9 7 Sur 16 Sudeste 0 -- -- 10
2020-08-30 18:00:00 31.9 6 Sur 17 Sudoeste 0 -- -- 10
2020-08-30 17:00:00 31.4 8 Sudoeste 22 Sudeste 0 -- -- 10
2020-08-30 16:00:00 31.2 6 Oeste 17 Noroeste 0 -- -- 9
2020-08-30 15:00:00 30.2 9 Nordeste 21 Sudeste 0 -- -- 11
2020-08-30 14:00:00 29.3 5 Noroeste 29 Este 0 -- -- 12
2020-08-30 13:00:00 28.2 15 Este 33 Este 0 -- -- 17
2020-08-30 12:00:00 25.8 21 Este 37 Este 0 -- -- 22
2020-08-30 11:00:00 24 24 Este 36 Este 0 -- -- 23
2020-08-30 10:00:00 21.6 12 Este 21 Nordeste 0 -- -- 29
2020-08-30 09:00:00 17.5 3 Este 7 Nordeste 0 -- -- 40
2020-08-30 08:00:00 17.2 3 Nordeste 14 Nordeste 0 -- -- 39
2020-08-30 07:00:00 16.7 10 Nordeste 13 Nordeste 0 -- -- 38
2020-08-30 06:00:00 17.1 8 Este 11 Este 0 -- -- 35
2020-08-30 05:00:00 17.8 4 Este 9 Nordeste 0 -- -- 35
2020-08-30 04:00:00 18.8 0 Calma 8 Noroeste 0 -- -- 30
2020-08-30 03:00:00 19.5 0 Calma 12 Norte 0 -- -- 29
2020-08-30 02:00:00 20.9 6 Nordeste 14 Norte 0 -- -- 25
2020-08-30 01:00:00 21.3 7 Nordeste 19 Norte 0 -- -- 24
2020-08-30 00:00:00 22.4 3 Norte 12 Noroeste 0 -- -- 21
2020-08-29 23:00:00 23.4 6 Oeste 10 Noroeste 0 -- -- 20
2020-08-29 22:00:00 25 4 Noroeste 21 Norte 0 -- -- 16
2020-08-29 21:00:00 26.7 15 Norte 29 Norte 0 -- -- 14
2020-08-29 20:00:00 28.9 20 Noroeste 32 Norte 0 -- -- 12
2020-08-29 19:00:00 30 18 Norte 30 Noroeste 0 -- -- 13
2020-08-29 18:00:00 30.2 22 Norte 36 Norte 0 -- -- 12
2020-08-29 17:00:00 30.3 14 Noroeste 35 Norte 0 -- -- 14
2020-08-29 16:00:00 29.5 12 Norte 33 Noroeste 0 -- -- 15
2020-08-29 15:00:00 28 13 Oeste 28 Oeste 0 -- -- 16
2020-08-29 14:00:00 26.3 15 Oeste 39 Oeste 0 -- -- 19
2020-08-29 13:00:00 24.7 15 Oeste 29 Oeste 0 -- -- 22
2020-08-29 12:00:00 23.3 12 Noroeste 25 Oeste 0 -- -- 27
2020-08-29 11:00:00 21.3 13 Noroeste 28 Noroeste 0 -- -- 34
2020-08-29 10:00:00 19.9 15 Noroeste 29 Noroeste 0 -- -- 38
2020-08-29 09:00:00 18.9 9 Oeste 17 Oeste 0 -- -- 43
2020-08-29 08:00:00 17.7 6 Oeste 19 Oeste 0 -- -- 48
2020-08-29 07:00:00 18.4 8 Noroeste 22 Noroeste 0 -- -- 45
2020-08-29 06:00:00 19.1 11 Noroeste 23 Noroeste 0 -- -- 42
2020-08-29 05:00:00 19.7 14 Noroeste 22 Noroeste 0 -- -- 38
2020-08-29 04:00:00 20.5 12 Noroeste 22 Noroeste 0 -- -- 36
2020-08-29 03:00:00 21.1 8 Noroeste 21 Norte 0 -- -- 33
2020-08-29 02:00:00 22.6 9 Oeste 15 Noroeste 0 -- -- 23
2020-08-29 01:00:00 24.8 6 Noroeste 20 Noroeste 0 -- -- 19
2020-08-29 00:00:00 26.1 8 Noroeste 15 Noroeste 0 -- -- 16
2020-08-28 23:00:00 28.2 8 Noroeste 21 Noroeste 0 -- -- 10
2020-08-28 22:00:00 30.1 10 Noroeste 29 Noroeste 0 -- -- 8
2020-08-28 21:00:00 32.2 16 Noroeste 28 Noroeste 0 -- -- 13
2020-08-28 20:00:00 35 15 Oeste 34 Oeste 0 -- -- 18
2020-08-28 19:00:00 35.6 21 Oeste 37 Oeste 0 -- -- 20
2020-08-28 18:00:00 36.1 19 Oeste 33 Oeste 0 -- -- 18
2020-08-28 17:00:00 36.4 16 Oeste 35 Oeste 0 -- -- 18
2020-08-28 16:00:00 35.8 16 Oeste 35 Oeste 0 -- -- 20
2020-08-28 15:00:00 34.7 17 Oeste 32 Oeste 0 -- -- 25
2020-08-28 14:00:00 32.9 12 Sudoeste 25 Oeste 0 -- -- 29
2020-08-28 13:00:00 31.2 14 Sudoeste 28 Sudoeste 0 -- -- 33
2020-08-28 12:00:00 29.8 11 Oeste 22 Sudoeste 0 -- -- 36
2020-08-28 11:00:00 27.7 6 Oeste 15 Oeste 0 -- -- 43
2020-08-28 10:00:00 25.7 8 Noroeste 19 Oeste 0 -- -- 48
2020-08-28 09:00:00 23.4 5 Noroeste 13 Oeste 0 -- -- 55
2020-08-28 08:00:00 21.7 6 Oeste 13 Oeste 0 -- -- 56
2020-08-28 07:00:00 22.3 6 Oeste 10 Oeste 0 -- -- 52
2020-08-28 06:00:00 23.1 3 Oeste 15 Oeste 0 -- -- 49
2020-08-28 05:00:00 23.6 5 Sudoeste 10 Sudoeste 0 -- -- 47
2020-08-28 04:00:00 23.9 2 Oeste 8 Sudoeste 0 -- -- 47
2020-08-28 03:00:00 25.2 4 Oeste 15 Sudoeste 0 -- -- 44
2020-08-28 02:00:00 26.4 9 Sudoeste 15 Sudoeste 0 -- -- 41
2020-08-28 01:00:00 27.6 7 Sudoeste 21 Sudoeste 0 -- -- 39
2020-08-28 00:00:00 28.8 12 Sudoeste 24 Sudoeste 0 -- -- 36
2020-08-27 23:00:00 30.3 14 Sudoeste 24 Sudoeste 0 -- -- 33
2020-08-27 22:00:00 32.6 10 Sudoeste 27 Sudoeste 0 -- -- 27
2020-08-27 21:00:00 35.1 14 Sudoeste 26 Sudoeste 0 -- -- 18
2020-08-27 20:00:00 37.9 15 Oeste 29 Oeste 0 -- -- 12
2020-08-27 19:00:00 39.1 18 Oeste 32 Oeste 0 -- -- 11
2020-08-27 18:00:00 39.7 21 Oeste 34 Oeste 0 -- -- 9
2020-08-27 17:00:00 39.8 14 Oeste 27 Oeste 0 -- -- 10
2020-08-27 16:00:00 39.6 12 Oeste 23 Noroeste 0 -- -- 10
2020-08-27 15:00:00 38.6 14 Oeste 26 Oeste 0 -- -- 10
2020-08-27 14:00:00 36.8 4 Sur 13 Sudoeste 0 -- -- 15
2020-08-27 13:00:00 34.9 5 Sudeste 12 Este 0 -- -- 22
2020-08-27 12:00:00 32.2 4 Este 12 Este 0 -- -- 27
2020-08-27 11:00:00 29.4 5 Este 11 Este 0 -- -- 31
2020-08-27 10:00:00 25.9 5 Este 9 Este 0 -- -- 37
2020-08-27 09:00:00 22.4 5 Este 8 Este 0 -- -- 48
2020-08-27 08:00:00 20.9 6 Este 12 Nordeste 0 -- -- 52
2020-08-27 07:00:00 21.2 4 Este 6 Sudeste 0 -- -- 54
2020-08-27 06:00:00 22 5 Este 8 Sudeste 0 -- -- 47
2020-08-27 05:00:00 22.6 0 Calma 7 Sudeste 0 -- -- 50
2020-08-27 04:00:00 23.9 2 Sudeste 6 Sur 0 -- -- 46
2020-08-27 03:00:00 25.6 2 Sudoeste 10 Sudoeste 0 -- -- 40
2020-08-27 02:00:00 26.9 3 Oeste 12 Sudoeste 0 -- -- 37
2020-08-27 01:00:00 28.8 5 Oeste 19 Sudoeste 0 -- -- 33
2020-08-27 00:00:00 30.5 12 Sudoeste 18 Sudoeste 0 -- -- 29
2020-08-26 23:00:00 31.8 8 Sudoeste 14 Oeste 0 -- -- 29
2020-08-26 22:00:00 32.9 6 Sudoeste 11 Sudoeste 0 -- -- 24
2020-08-26 21:00:00 35.9 5 Sudoeste 19 Oeste 0 -- -- 18
2020-08-26 20:00:00 38.8 14 Oeste 22 Oeste 0 -- -- 13
2020-08-26 19:00:00 40.3 8 Sudoeste 17 Oeste 0 -- -- 13
2020-08-26 18:00:00 40.3 7 Oeste 21 Oeste 0 -- -- 13
2020-08-26 17:00:00 39.5 8 Oeste 15 Oeste 0 -- -- 13
2020-08-26 16:00:00 38.6 8 Oeste 17 Sudoeste 0 -- -- 17
2020-08-26 15:00:00 37.1 8 Oeste 17 Oeste 0 -- -- 22
2020-08-26 14:00:00 35.4 7 Sur 14 Sudoeste 0 -- -- 28
2020-08-26 13:00:00 33.5 5 Sudeste 13 Sur 0 -- -- 32
2020-08-26 12:00:00 31.6 4 Este 10 Nordeste 0 -- -- 36
2020-08-26 11:00:00 29.2 5 Nordeste 9 Este 0 -- -- 41
2020-08-26 10:00:00 26.2 4 Nordeste 7 Norte 0 -- -- 50
2020-08-26 09:00:00 23.3 3 Este 6 Nordeste 0 -- -- 58
2020-08-26 08:00:00 21.7 5 Este 9 Sudeste 0 -- -- 62
2020-08-26 07:00:00 22.2 4 Este 6 Este 0 -- -- 61
2020-08-26 06:00:00 23 0 Calma 3 Sur 0 -- -- 60
2020-08-26 05:00:00 24.1 2 Norte 7 Sudoeste 0 -- -- 55
2020-08-26 04:00:00 25.6 4 Oeste 14 Sudoeste 0 -- -- 51
2020-08-26 03:00:00 26.3 9 Sur 17 Sur 0 -- -- 49
2020-08-26 02:00:00 26.7 9 Sur 14 Sudoeste 0 -- -- 48
2020-08-26 01:00:00 28.4 6 Oeste 18 Sudoeste 0 -- -- 39
2020-08-26 00:00:00 29.1 9 Sudoeste 15 Sudoeste 0 -- -- 30
2020-08-25 23:00:00 31.2 8 Sudoeste 17 Sudoeste 0 -- -- 25
2020-08-25 22:00:00 32.5 4 Oeste 6 Oeste 0 -- -- 23
2020-08-25 21:00:00 35.5 4 Oeste 9 Oeste 0 -- -- 21
2020-08-25 20:00:00 38.4 3 Sudoeste 9 Oeste 0 -- -- 15
2020-08-25 19:00:00 38.8 6 Oeste 13 Oeste 0 -- -- 16
2020-08-25 18:00:00 38.1 5 Sudoeste 20 Oeste 0 -- -- 19
2020-08-25 17:00:00 37.8 6 Sudeste 19 Sudoeste 0 -- -- 20
2020-08-25 16:00:00 36.9 6 Sudoeste 16 Oeste 0 -- -- 22
2020-08-25 15:00:00 35.5 5 Sudoeste 22 Sur 0 -- -- 26
2020-08-25 14:00:00 34.1 6 Sudoeste 15 Este 0 -- -- 29
2020-08-25 13:00:00 32.7 5 Sudeste 16 Nordeste 0 -- -- 37
2020-08-25 12:00:00 30.3 7 Nordeste 14 Este 0 -- -- 40
2020-08-25 11:00:00 28.8 4 Norte 11 Nordeste 0 -- -- 44
2020-08-25 10:00:00 25.9 4 Nordeste 8 Nordeste 0 -- -- 52
2020-08-25 09:00:00 23 4 Nordeste 7 Nordeste 0 -- -- 60
2020-08-25 08:00:00 20.9 5 Este 7 Este 0 -- -- 65
2020-08-25 07:00:00 21.5 4 Este 6 Este 0 -- -- 64
2020-08-25 06:00:00 22.6 2 Este 3 Noroeste 0 -- -- 63
2020-08-25 05:00:00 23.7 0 Calma 5 Noroeste 0 -- -- 59
2020-08-25 04:00:00 24.5 5 Sudoeste 19 Sudoeste 0 -- -- 56
2020-08-25 03:00:00 25.1 7 Sudoeste 12 Sudoeste 0 -- -- 55
2020-08-25 02:00:00 26.1 5 Sudoeste 18 Oeste 0 -- -- 50
2020-08-25 01:00:00 27.3 9 Sudoeste 18 Sudoeste 0 -- -- 48
2020-08-25 00:00:00 29.1 10 Sudoeste 23 Oeste 0 -- -- 34
2020-08-24 23:00:00 29.9 13 Sudoeste 19 Sudoeste 0 -- -- 28
2020-08-24 22:00:00 31.6 8 Oeste 12 Oeste 0 -- -- 28
2020-08-24 21:00:00 34 9 Oeste 15 Oeste 0 -- -- 26
2020-08-24 20:00:00 37.1 7 Oeste 14 Oeste 0 -- -- 17
2020-08-24 19:00:00 37.3 8 Oeste 16 Oeste 0 -- -- 18
2020-08-24 18:00:00 37.4 7 Oeste 19 Noroeste 0 -- -- 18
2020-08-24 17:00:00 36.9 6 Oeste 18 Oeste 0 -- -- 20
2020-08-24 16:00:00 35.9 10 Oeste 17 Oeste 0 -- -- 23
2020-08-24 15:00:00 34.3 5 Noroeste 18 Oeste 0 -- -- 27
2020-08-24 14:00:00 32.9 5 Este 15 Oeste 0 -- -- 29
2020-08-24 13:00:00 31.4 5 Sur 15 Sudoeste 0 -- -- 33
2020-08-24 12:00:00 29.4 5 Norte 11 Oeste 0 -- -- 34
2020-08-24 11:00:00 27.1 4 Nordeste 8 Nordeste 0 -- -- 33
2020-08-24 10:00:00 23.6 5 Nordeste 10 Nordeste 0 -- -- 31
2020-08-24 09:00:00 21.1 6 Este 9 Este 0 -- -- 33
2020-08-24 08:00:00 18.6 4 Este 11 Este 0 -- -- 38
2020-08-24 07:00:00 19 5 Este 12 Este 0 -- -- 37
2020-08-24 06:00:00 19.5 6 Sudeste 8 Sudeste 0 -- -- 40
2020-08-24 05:00:00 20.2 4 Norte 10 Sur 0 -- -- 43
2020-08-24 04:00:00 20.9 6 Sur 6 Sudeste 0 -- -- 41
2020-08-24 03:00:00 22.2 4 Sur 7 Oeste 0 -- -- 37
2020-08-24 02:00:00 23.5 4 Oeste 9 Oeste 0 -- -- 33
2020-08-24 01:00:00 25.4 3 Oeste 9 Sudoeste 0 -- -- 27
2020-08-24 00:00:00 27.7 7 Sudoeste 21 Sudoeste 0 -- -- 21
2020-08-23 23:00:00 30.3 12 Sudoeste 23 Sudoeste 0 -- -- 16
2020-08-23 22:00:00 33.3 9 Oeste 17 Oeste 0 -- -- 8
2020-08-23 21:00:00 34.7 11 Oeste 17 Oeste 0 -- -- 10
2020-08-23 20:00:00 38.3 9 Oeste 19 Oeste 0 -- -- 6
2020-08-23 19:00:00 39.3 9 Oeste 17 Oeste 0 -- -- 4
2020-08-23 18:00:00 39.4 9 Oeste 18 Oeste 0 -- -- 5
2020-08-23 17:00:00 39.3 8 Oeste 21 Noroeste 0 -- -- 4
2020-08-23 16:00:00 38.6 9 Sudoeste 18 Sudoeste 0 -- -- 6
2020-08-23 15:00:00 37.7 6 Sur 15 Sudeste 0 -- -- 5
2020-08-23 14:00:00 36.5 6 Noroeste 13 Oeste 0 -- -- 8
2020-08-23 13:00:00 34.4 5 Nordeste 11 Sudeste 0 -- -- 11
2020-08-23 12:00:00 31.5 3 Sudeste 8 Sudeste 0 -- -- 14
2020-08-23 11:00:00 28.6 4 Nordeste 10 Nordeste 0 -- -- 19
2020-08-23 10:00:00 26.2 3 Nordeste 6 Nordeste 0 -- -- 24
2020-08-23 09:00:00 23.2 2 Noroeste 5 Noroeste 0 -- -- 36
2020-08-23 08:00:00 20.6 0 Calma 4 Noroeste 0 -- -- 39
2020-08-23 07:00:00 20.9 3 Noroeste 5 Oeste 0 -- -- 40
2020-08-23 06:00:00 21.3 3 Oeste 5 Oeste 0 -- -- 47
2020-08-23 05:00:00 22.5 0 Calma 11 Oeste 0 -- -- 43
2020-08-23 04:00:00 24.1 6 Noroeste 12 Noroeste 0 -- -- 34
2020-08-23 03:00:00 24.4 2 Oeste 13 Oeste 0 -- -- 38
2020-08-23 02:00:00 25.9 6 Oeste 12 Oeste 0 -- -- 29
2020-08-23 01:00:00 27.8 6 Oeste 13 Oeste 0 -- -- 21
2020-08-23 00:00:00 29.9 6 Oeste 11 Noroeste 0 -- -- 19
2020-08-22 23:00:00 31.7 6 Noroeste 19 Oeste 0 -- -- 19
2020-08-22 22:00:00 32.5 10 Oeste 17 Oeste 0 -- -- 28
2020-08-22 21:00:00 35.1 8 Oeste 14 Oeste 0 -- -- 24
2020-08-22 20:00:00 37.9 9 Oeste 14 Oeste 0 -- -- 20
2020-08-22 19:00:00 38.3 6 Oeste 18 Oeste 0 -- -- 20
2020-08-22 18:00:00 38.1 7 Oeste 19 Sudoeste 0 -- -- 19
2020-08-22 17:00:00 37.6 6 Sudoeste 21 Oeste 0 -- -- 20
2020-08-22 16:00:00 36.9 9 Sudoeste 16 Oeste 0 -- -- 22
2020-08-22 15:00:00 35.3 10 Oeste 21 Sudoeste 0 -- -- 25
2020-08-22 14:00:00 34.3 6 Oeste 21 Sudoeste 0 -- -- 27
2020-08-22 13:00:00 32.6 9 Oeste 15 Sudeste 0 -- -- 30
2020-08-22 12:00:00 31.2 6 Sur 11 Sur 0 -- -- 33
2020-08-22 11:00:00 29.2 3 Este 9 Noroeste 0 -- -- 36
2020-08-22 10:00:00 26.2 5 Noroeste 9 Norte 0 -- -- 44
2020-08-22 09:00:00 24.1 0 Calma 3 Sudoeste 0 -- -- 57
2020-08-22 08:00:00 21.4 0 Calma 4 Sudoeste 0 -- -- 73
2020-08-22 07:00:00 21.7 2 Sudoeste 9 Sur 0 -- -- 72
2020-08-22 06:00:00 22.2 0 Calma 6 Sur 0 -- -- 70
2020-08-22 05:00:00 22.6 2 Sudeste 3 Este 0 -- -- 67
2020-08-22 04:00:00 23.4 2 Sur 6 Sudoeste 0 -- -- 63
2020-08-22 03:00:00 24.3 3 Sudoeste 8 Oeste 0 -- -- 59
2020-08-22 02:00:00 25.2 5 Oeste 8 Sudoeste 0 -- -- 56
2020-08-22 01:00:00 26.4 5 Oeste 18 Sudoeste 0 -- -- 52
2020-08-22 00:00:00 27.7 9 Sudoeste 20 Sudoeste 0 -- -- 46